La Crosse, KS (67548)

11:49 PM CDT on October 22, 2014 (GMT -0500)
Rural Ellis Co. | Change Station
CLOSE
Current Station
Personal Weather Station
Location: Hays, KS
Elevation: 2077 ft
Nearby Weather Stations

Elev 2077 ft 38.81 °N, 99.37 °W | Updated 11 minutes ago

Partly Cloudy
Partly Cloudy
60.4 °F
Feels Like 60.4 °F
N
6.3
Wind Variable Wind from SSW

Today
High -- | Low -- °F
--% Chance of Precip.
Yesterday
High -- | Low -- °F
Precip. -- in
7:53 AM 6:49 PM
Waning Crescent, 1% visible
Pressure 30.06 in
Visibility 10.0 miles
Clouds Mostly Cloudy 4500 ft
Dew Point 60 °F
Humidity 98%
Rainfall 0.03 in
Snow Depth Not available.
UV 0 out of 12
Pollen 3.40 out of 12
Air Quality Not available.
Flu Activity No Activity
METAR KHYS 230435Z AUTO 21006KT 10SM BKN045 15/12 A3006 RMK AO1

More Conditions Fewer Conditions

Pressure 30.06 in
Visibility 10.0 miles
Clouds Mostly Cloudy 4500 ft
Dew Point 60 °F
Humidity 98%
Rainfall 0.03 in
Snow Depth Not available.
UV 0 out of 12
Pollen 3.40 out of 12
Air Quality Not available.
Flu Activity No Activity
METAR KHYS 230435Z AUTO 21006KT 10SM BKN045 15/12 A3006 RMK AO1

More Conditions Fewer Conditions

10-Day Weather Forecast

Almanac

Astronomy

Oct. 22, 2014 Rise Set
Actual Time 7:53 AM CDT 6:49 PM CDT
Civil Twilight 7:26 AM CDT 7:16 PM CDT
Nautical Twilight 6:55 AM CDT 7:47 PM CDT
Astronomical Twilight 6:24 AM CDT 8:17 PM CDT
Moon 6:37 AM CDT (10/22) 6:16 PM CDT (10/22)
Length of Visible Light 11h 50m
Length of Day
10h 56m
Tomorrow will be 2m 20s shorter.
Waning Crescent, 1% of the Moon is Illuminated
Oct 23
Waning Crescent
Oct 23
New
Oct 30
First Quarter
Nov 6
Full
Nov 14
Last Quarter

Yesterday's Extremes

State Highs State Lows

Community

WunderPhotos

Upload Photos

1,764,154 photos uploaded!

Nearby

Snow Depth

Station Depth Elevation
No new snow has been reported.

Earthquake Activity

City Distance Mag. Time & Date
Anthony, Kansas 129 miles 3.3 6:48 PM CDT
2014-10-22
Cherokee, Oklahoma 139 miles 2.9 2:48 PM CDT
2014-10-21
Cherokee, Oklahoma 140 miles 2.5 8:27 AM CDT
2014-10-21
Anthony, Kansas 128 miles 3.0 6:55 AM CDT
2014-10-21
Minimum magnitude displayed is 2.5.

Coastal Water Temperatures

Place Temperature
No Stations Reporting

Nearby Weather Stations